sensor_id;sensor_type;location;lat;lon;timestamp;pressure;altitude;pressure_sealevel;temperature;humidity
69796;BME280;57073;45.650;9.612;2023-02-01T00:09:55;99661.31;;;4.79;51.81
69796;BME280;57073;45.650;9.612;2023-02-01T00:19:55;99667.34;;;4.73;52.15
69796;BME280;57073;45.650;9.612;2023-02-01T00:29:55;99666.81;;;4.78;51.96
69796;BME280;57073;45.650;9.612;2023-02-01T00:39:56;99658.78;;;4.94;50.66
69796;BME280;57073;45.650;9.612;2023-02-01T00:49:57;99639.66;;;4.99;50.01
69796;BME280;57073;45.650;9.612;2023-02-01T00:59:57;99647.53;;;4.84;49.78
69796;BME280;57073;45.650;9.612;2023-02-01T01:09:57;99653.22;;;4.65;50.16
69796;BME280;57073;45.650;9.612;2023-02-01T01:19:58;99653.50;;;4.78;51.31
69796;BME280;57073;45.650;9.612;2023-02-01T01:29:58;99657.53;;;4.66;52.58
69796;BME280;57073;45.650;9.612;2023-02-01T01:39:58;99647.25;;;4.63;51.95
69796;BME280;57073;45.650;9.612;2023-02-01T01:50:00;99634.94;;;4.61;51.95
69796;BME280;57073;45.650;9.612;2023-02-01T02:00:06;99631.53;;;4.28;51.46
69796;BME280;57073;45.650;9.612;2023-02-01T02:10:10;99622.56;;;4.21;51.16
69796;BME280;57073;45.650;9.612;2023-02-01T02:41:10;99590.19;;;4.26;50.61
69796;BME280;57073;45.650;9.612;2023-02-01T02:51:32;99591.31;;;4.39;50.26
69796;BME280;57073;45.650;9.612;2023-02-01T03:01:53;99581.28;;;4.58;49.52
69796;BME280;57073;45.650;9.612;2023-02-01T03:12:13;99590.78;;;4.44;51.38
69796;BME280;57073;45.650;9.612;2023-02-01T03:22:34;99587.03;;;4.30;51.05
69796;BME280;57073;45.650;9.612;2023-02-01T03:32:38;99594.50;;;4.18;50.91
69796;BME280;57073;45.650;9.612;2023-02-01T03:42:59;99591.38;;;4.07;52.44
69796;BME280;57073;45.650;9.612;2023-02-01T03:53:07;99585.44;;;3.88;52.12
69796;BME280;57073;45.650;9.612;2023-02-01T04:03:08;99601.66;;;3.93;52.36
69796;BME280;57073;45.650;9.612;2023-02-01T04:13:08;99597.34;;;3.84;53.09
69796;BME280;57073;45.650;9.612;2023-02-01T04:23:09;99613.13;;;3.86;52.96
69796;BME280;57073;45.650;9.612;2023-02-01T04:33:09;99621.44;;;3.99;51.42
69796;BME280;57073;45.650;9.612;2023-02-01T04:43:09;99632.53;;;3.94;51.76
69796;BME280;57073;45.650;9.612;2023-02-01T04:53:10;99627.91;;;3.88;52.73
69796;BME280;57073;45.650;9.612;2023-02-01T05:03:10;99637.84;;;3.94;53.01
69796;BME280;57073;45.650;9.612;2023-02-01T05:13:10;99646.97;;;4.25;51.88
69796;BME280;57073;45.650;9.612;2023-02-01T05:23:29;99646.66;;;4.19;51.50
69796;BME280;57073;45.650;9.612;2023-02-01T05:33:30;99647.81;;;4.25;50.89
69796;BME280;57073;45.650;9.612;2023-02-01T05:43:30;99655.44;;;4.03;52.24
69796;BME280;57073;45.650;9.612;2023-02-01T05:53:30;99658.78;;;4.14;51.74
69796;BME280;57073;45.650;9.612;2023-02-01T06:03:31;99637.19;;;4.09;51.69
69796;BME280;57073;45.650;9.612;2023-02-01T06:13:32;99632.22;;;3.97;52.04
69796;BME280;57073;45.650;9.612;2023-02-01T06:23:33;99630.19;;;4.24;50.55
69796;BME280;57073;45.650;9.612;2023-02-01T06:33:34;99624.75;;;4.17;50.32
69796;BME280;57073;45.650;9.612;2023-02-01T06:43:34;99637.66;;;4.37;50.36
69796;BME280;57073;45.650;9.612;2023-02-01T06:53:35;99643.47;;;4.24;50.97
69796;BME280;57073;45.650;9.612;2023-02-01T07:03:35;99653.09;;;4.17;52.06
69796;BME280;57073;45.650;9.612;2023-02-01T07:13:36;99654.59;;;4.36;50.70
69796;BME280;57073;45.650;9.612;2023-02-01T07:23:36;99672.88;;;4.31;51.24
69796;BME280;57073;45.650;9.612;2023-02-01T07:33:37;99653.38;;;4.63;51.28
69796;BME280;57073;45.650;9.612;2023-02-01T07:43:37;99664.81;;;5.28;50.22
69796;BME280;57073;45.650;9.612;2023-02-01T07:53:38;99677.63;;;6.33;48.03
69796;BME280;57073;45.650;9.612;2023-02-01T08:03:39;99683.03;;;7.07;45.88
69796;BME280;57073;45.650;9.612;2023-02-01T08:13:39;99691.81;;;7.89;45.30
69796;BME280;57073;45.650;9.612;2023-02-01T08:23:41;99689.59;;;8.64;45.45
69796;BME280;57073;45.650;9.612;2023-02-01T08:33:43;99696.97;;;9.25;44.09
69796;BME280;57073;45.650;9.612;2023-02-01T08:43:44;99680.59;;;9.55;44.06
69796;BME280;57073;45.650;9.612;2023-02-01T08:53:45;99674.06;;;9.71;42.33
69796;BME280;57073;45.650;9.612;2023-02-01T09:03:46;99679.31;;;10.26;43.96
69796;BME280;57073;45.650;9.612;2023-02-01T09:13:47;99684.53;;;10.41;44.08
69796;BME280;57073;45.650;9.612;2023-02-01T09:23:50;99689.88;;;10.47;44.63
69796;BME280;57073;45.650;9.612;2023-02-01T09:33:50;99685.56;;;10.46;45.17
69796;BME280;57073;45.650;9.612;2023-02-01T09:54:14;99676.84;;;10.17;45.96
69796;BME280;57073;45.650;9.612;2023-02-01T10:04:17;99670.41;;;10.18;46.72
69796;BME280;57073;45.650;9.612;2023-02-01T10:24:36;99677.88;;;10.30;46.98
69796;BME280;57073;45.650;9.612;2023-02-01T10:34:37;99671.72;;;10.43;45.14
69796;BME280;57073;45.650;9.612;2023-02-01T10:44:40;99669.22;;;10.61;45.39
69796;BME280;57073;45.650;9.612;2023-02-01T10:54:43;99668.19;;;10.69;44.12
69796;BME280;57073;45.650;9.612;2023-02-01T11:04:43;99651.22;;;10.88;45.72
69796;BME280;57073;45.650;9.612;2023-02-01T11:14:47;99632.81;;;10.99;43.97
69796;BME280;57073;45.650;9.612;2023-02-01T11:24:47;99634.78;;;11.17;44.68
69796;BME280;57073;45.650;9.612;2023-02-01T11:34:57;99625.69;;;11.24;43.52
69796;BME280;57073;45.650;9.612;2023-02-01T11:45:28;99599.94;;;11.48;43.03
69796;BME280;57073;45.650;9.612;2023-02-01T12:26:50;99557.50;;;12.14;44.07
69796;BME280;57073;45.650;9.612;2023-02-01T12:37:18;99535.09;;;12.20;44.32
69796;BME280;57073;45.650;9.612;2023-02-01T12:57:33;99521.06;;;12.37;45.69
69796;BME280;57073;45.650;9.612;2023-02-01T13:18:00;99477.63;;;12.33;46.04
69796;BME280;57073;45.650;9.612;2023-02-01T13:28:12;99468.06;;;12.37;47.02
69796;BME280;57073;45.650;9.612;2023-02-01T13:49:02;99442.66;;;12.33;47.01
69796;BME280;57073;45.650;9.612;2023-02-01T14:09:41;99451.16;;;12.30;45.89
69796;BME280;57073;45.650;9.612;2023-02-01T14:19:42;99434.19;;;12.30;45.49
69796;BME280;57073;45.650;9.612;2023-02-01T14:29:49;99436.72;;;12.24;44.74
69796;BME280;57073;45.650;9.612;2023-02-01T15:00:29;99437.38;;;12.20;43.67
69796;BME280;57073;45.650;9.612;2023-02-01T15:10:31;99439.59;;;12.11;42.11
69796;BME280;57073;45.650;9.612;2023-02-01T15:20:32;99443.03;;;12.18;42.52
69796;BME280;57073;45.650;9.612;2023-02-01T15:30:34;99446.16;;;12.15;42.03
69796;BME280;57073;45.650;9.612;2023-02-01T15:40:35;99445.94;;;12.17;41.87
69796;BME280;57073;45.650;9.612;2023-02-01T15:50:39;99450.78;;;12.08;43.16
69796;BME280;57073;45.650;9.612;2023-02-01T16:01:11;99457.78;;;12.09;44.55
69796;BME280;57073;45.650;9.612;2023-02-01T16:11:29;99466.75;;;12.03;45.13
69796;BME280;57073;45.650;9.612;2023-02-01T16:21:30;99469.78;;;11.88;46.23
69796;BME280;57073;45.650;9.612;2023-02-01T16:31:32;99463.38;;;11.64;47.46
69796;BME280;57073;45.650;9.612;2023-02-01T16:41:34;99487.44;;;11.52;48.40
69796;BME280;57073;45.650;9.612;2023-02-01T16:51:34;99497.84;;;11.42;48.61
69796;BME280;57073;45.650;9.612;2023-02-01T17:01:35;99509.28;;;11.30;49.15
69796;BME280;57073;45.650;9.612;2023-02-01T17:11:37;99517.84;;;11.21;49.55
69796;BME280;57073;45.650;9.612;2023-02-01T17:21:46;99537.34;;;11.03;50.02
69796;BME280;57073;45.650;9.612;2023-02-01T17:31:52;99531.59;;;10.92;50.01
69796;BME280;57073;45.650;9.612;2023-02-01T17:41:53;99532.69;;;10.78;50.30
69796;BME280;57073;45.650;9.612;2023-02-01T17:51:55;99536.66;;;10.69;49.24
69796;BME280;57073;45.650;9.612;2023-02-01T18:01:56;99550.94;;;10.56;48.76
69796;BME280;57073;45.650;9.612;2023-02-01T18:12:00;99547.88;;;10.26;48.73
69796;BME280;57073;45.650;9.612;2023-02-01T18:22:02;99555.75;;;10.21;48.75
69796;BME280;57073;45.650;9.612;2023-02-01T18:32:04;99558.63;;;10.12;48.71
69796;BME280;57073;45.650;9.612;2023-02-01T18:42:04;99551.63;;;10.05;47.91
69796;BME280;57073;45.650;9.612;2023-02-01T18:52:04;99547.91;;;10.12;47.25
69796;BME280;57073;45.650;9.612;2023-02-01T19:02:05;99548.31;;;10.16;46.65
69796;BME280;57073;45.650;9.612;2023-02-01T19:12:06;99551.19;;;10.14;44.55
69796;BME280;57073;45.650;9.612;2023-02-01T19:22:06;99536.75;;;10.09;42.96
69796;BME280;57073;45.650;9.612;2023-02-01T19:32:07;99542.13;;;10.15;41.67
69796;BME280;57073;45.650;9.612;2023-02-01T19:42:07;99547.06;;;10.18;42.24
69796;BME280;57073;45.650;9.612;2023-02-01T19:52:08;99550.97;;;10.29;41.88
69796;BME280;57073;45.650;9.612;2023-02-01T20:02:14;99563.75;;;10.54;40.99
69796;BME280;57073;45.650;9.612;2023-02-01T20:12:15;99564.09;;;10.71;41.37
69796;BME280;57073;45.650;9.612;2023-02-01T20:22:15;99568.47;;;10.65;41.30
69796;BME280;57073;45.650;9.612;2023-02-01T20:32:16;99560.00;;;10.55;40.88
69796;BME280;57073;45.650;9.612;2023-02-01T20:42:16;99556.97;;;10.45;40.58
69796;BME280;57073;45.650;9.612;2023-02-01T20:52:17;99561.72;;;10.36;38.92
69796;BME280;57073;45.650;9.612;2023-02-01T21:02:17;99570.59;;;9.90;39.03
69796;BME280;57073;45.650;9.612;2023-02-01T21:12:17;99565.63;;;9.73;38.83
69796;BME280;57073;45.650;9.612;2023-02-01T21:22:18;99574.84;;;9.44;39.61
69796;BME280;57073;45.650;9.612;2023-02-01T21:32:19;99586.78;;;9.35;40.19
69796;BME280;57073;45.650;9.612;2023-02-01T21:42:19;99580.75;;;9.13;39.98
69796;BME280;57073;45.650;9.612;2023-02-01T21:52:21;99589.72;;;8.92;41.49
69796;BME280;57073;45.650;9.612;2023-02-01T22:02:21;99588.34;;;9.09;41.50
69796;BME280;57073;45.650;9.612;2023-02-01T22:12:22;99585.34;;;8.84;42.08
69796;BME280;57073;45.650;9.612;2023-02-01T22:22:22;99595.72;;;8.59;41.44
69796;BME280;57073;45.650;9.612;2023-02-01T22:32:22;99600.63;;;8.55;40.32
69796;BME280;57073;45.650;9.612;2023-02-01T22:42:23;99592.19;;;8.23;40.36
69796;BME280;57073;45.650;9.612;2023-02-01T22:52:24;99595.75;;;8.09;40.43
69796;BME280;57073;45.650;9.612;2023-02-01T23:02:24;99590.16;;;8.04;37.29
69796;BME280;57073;45.650;9.612;2023-02-01T23:12:24;99588.75;;;8.08;34.44
69796;BME280;57073;45.650;9.612;2023-02-01T23:22:25;99596.97;;;8.06;32.45
69796;BME280;57073;45.650;9.612;2023-02-01T23:32:26;99586.88;;;8.02;32.91
69796;BME280;57073;45.650;9.612;2023-02-01T23:42:26;99589.97;;;8.05;31.56
69796;BME280;57073;45.650;9.612;2023-02-01T23:52:26;99583.91;;;8.18;30.34
